createdAt,value
2017-12-31T00:01:13.513Z,12.41
2017-12-31T00:03:41.140Z,12.35
2017-12-31T00:06:08.918Z,12.29
2017-12-31T00:08:36.524Z,12.32
2017-12-31T00:11:04.905Z,12.33
2017-12-31T00:13:32.469Z,12.26
2017-12-31T00:16:00.550Z,12.16
2017-12-31T00:18:28.035Z,12.19
2017-12-31T00:20:56.935Z,12.15
2017-12-31T00:23:24.731Z,12.05
2017-12-31T00:25:52.618Z,12.05
2017-12-31T00:28:20.114Z,12.01
2017-12-31T00:30:47.752Z,11.98
2017-12-31T00:33:15.651Z,11.96
2017-12-31T00:35:43.520Z,11.93
2017-12-31T00:38:11.246Z,11.85
2017-12-31T00:40:38.746Z,11.83
2017-12-31T00:43:06.232Z,11.72
2017-12-31T00:45:33.733Z,11.62
2017-12-31T00:48:02.139Z,11.58
2017-12-31T00:50:29.679Z,11.55
2017-12-31T00:52:57.954Z,11.52
2017-12-31T00:55:25.782Z,11.45
2017-12-31T00:57:53.551Z,11.43
2017-12-31T01:00:21.259Z,11.46
2017-12-31T01:02:49.244Z,11.41
2017-12-31T01:05:16.734Z,11.45
2017-12-31T01:07:44.239Z,11.40
2017-12-31T01:10:12.571Z,11.28
2017-12-31T01:12:40.108Z,11.20
2017-12-31T01:15:09.601Z,11.13
2017-12-31T01:17:37.140Z,10.95
2017-12-31T01:20:05.095Z,10.96
2017-12-31T01:22:32.601Z,10.80
2017-12-31T01:25:01.575Z,10.83
2017-12-31T01:27:29.345Z,10.60
2017-12-31T01:29:58.566Z,10.67
2017-12-31T01:32:26.114Z,10.60
2017-12-31T01:34:53.678Z,10.43
2017-12-31T01:37:21.934Z,10.39
2017-12-31T01:39:49.438Z,10.36
2017-12-31T01:42:17.757Z,10.34
2017-12-31T01:44:45.548Z,10.29
2017-12-31T01:47:14.149Z,10.43
2017-12-31T01:49:42.149Z,10.35
2017-12-31T01:52:10.570Z,10.23
2017-12-31T01:54:38.158Z,10.15
2017-12-31T01:57:05.679Z,10.09
2017-12-31T01:59:33.230Z,10.07
2017-12-31T02:02:00.983Z,10.01
2017-12-31T02:04:28.542Z,10.06
2017-12-31T02:06:59.960Z,10.09
2017-12-31T02:09:27.722Z,10.05
2017-12-31T02:11:55.625Z,10.06
2017-12-31T02:14:23.154Z,10.06
2017-12-31T02:16:50.943Z,10.03
2017-12-31T02:19:18.749Z,10.07
2017-12-31T02:21:46.279Z,10.10
2017-12-31T02:24:14.222Z,10.07
2017-12-31T02:26:42.856Z,10.03
2017-12-31T02:29:10.418Z,10.06
2017-12-31T02:31:38.173Z,10.08
2017-12-31T02:34:05.834Z,10.10
2017-12-31T02:36:33.346Z,10.17
2017-12-31T02:39:01.427Z,10.20
2017-12-31T02:41:28.940Z,10.22
2017-12-31T02:43:56.497Z,10.24
2017-12-31T02:46:24.011Z,10.29
2017-12-31T02:48:51.598Z,10.32
2017-12-31T02:51:19.112Z,10.31
2017-12-31T02:53:46.638Z,10.33
2017-12-31T02:56:14.158Z,10.33
2017-12-31T02:58:41.991Z,10.37
2017-12-31T03:01:09.888Z,10.40
2017-12-31T03:03:37.459Z,10.40
2017-12-31T03:06:05.185Z,10.45
2017-12-31T03:08:33.123Z,10.48
2017-12-31T03:11:00.603Z,10.60
2017-12-31T03:13:28.358Z,10.72
2017-12-31T03:15:55.866Z,10.87
2017-12-31T03:18:23.802Z,11.24
2017-12-31T03:20:51.987Z,11.64
2017-12-31T03:23:19.506Z,11.92
2017-12-31T03:25:47.292Z,12.33
2017-12-31T03:28:14.782Z,12.60
2017-12-31T03:30:42.286Z,12.70
2017-12-31T03:33:09.826Z,12.82
2017-12-31T03:35:37.643Z,12.91
2017-12-31T03:38:05.230Z,12.94
2017-12-31T03:40:32.971Z,13.01
2017-12-31T03:43:00.903Z,13.07
2017-12-31T03:45:28.632Z,13.15
2017-12-31T03:47:56.182Z,13.21
2017-12-31T03:50:23.662Z,13.28
2017-12-31T03:52:51.426Z,13.33
2017-12-31T03:55:18.965Z,13.45
2017-12-31T03:57:46.748Z,13.43
2017-12-31T04:00:14.259Z,13.42
2017-12-31T04:02:41.816Z,13.52
2017-12-31T04:05:09.990Z,13.58
2017-12-31T04:07:37.585Z,13.52
2017-12-31T04:10:05.123Z,13.56
2017-12-31T04:12:32.602Z,13.65
2017-12-31T04:15:00.304Z,13.59
2017-12-31T04:17:27.763Z,13.68
2017-12-31T04:19:55.535Z,13.57
2017-12-31T04:22:23.043Z,13.56
2017-12-31T04:24:51.854Z,13.52
2017-12-31T04:27:19.431Z,13.61
2017-12-31T04:29:46.970Z,13.72
2017-12-31T04:32:14.494Z,13.62
2017-12-31T04:34:42.042Z,13.67
2017-12-31T04:37:10.262Z,13.64
2017-12-31T04:39:37.790Z,13.79
2017-12-31T04:42:05.543Z,13.73
2017-12-31T04:44:33.070Z,13.70
2017-12-31T04:47:00.622Z,13.64
2017-12-31T04:49:28.155Z,13.64
2017-12-31T04:51:55.678Z,13.69
2017-12-31T04:54:23.554Z,13.74
2017-12-31T04:56:51.091Z,13.72
2017-12-31T04:59:18.610Z,13.67
2017-12-31T05:01:46.562Z,13.62
2017-12-31T05:04:14.311Z,13.73
2017-12-31T05:06:42.201Z,13.64
2017-12-31T05:09:10.070Z,13.66
2017-12-31T05:11:39.103Z,13.61
2017-12-31T05:14:07.522Z,13.64
2017-12-31T05:16:35.002Z,13.67
2017-12-31T05:19:02.497Z,13.69
2017-12-31T05:21:30.012Z,13.75
2017-12-31T05:23:57.835Z,13.70
2017-12-31T05:26:25.338Z,13.72
2017-12-31T05:28:52.878Z,13.68
2017-12-31T05:31:20.390Z,13.65
2017-12-31T05:33:48.100Z,13.60
2017-12-31T05:36:16.501Z,13.65
2017-12-31T05:38:44.095Z,13.55
2017-12-31T05:41:11.614Z,13.59
2017-12-31T05:43:39.131Z,13.60
2017-12-31T05:46:07.482Z,13.59
2017-12-31T05:48:35.035Z,13.58
2017-12-31T05:51:02.834Z,13.57
2017-12-31T05:53:31.590Z,13.57
2017-12-31T05:55:59.347Z,13.61
2017-12-31T05:58:26.878Z,13.61
2017-12-31T06:00:54.394Z,13.53
2017-12-31T06:03:21.854Z,13.45
2017-12-31T06:05:50.519Z,13.45
2017-12-31T06:08:18.543Z,13.41
2017-12-31T06:10:46.434Z,13.43
2017-12-31T06:13:13.916Z,13.39
2017-12-31T06:15:41.394Z,13.27
2017-12-31T06:18:09.149Z,13.30
2017-12-31T06:20:37.352Z,13.26
2017-12-31T06:23:05.328Z,13.29
2017-12-31T06:25:32.903Z,13.24
2017-12-31T06:28:00.434Z,13.15
2017-12-31T06:30:28.427Z,13.12
2017-12-31T06:32:56.284Z,13.08
2017-12-31T06:35:24.885Z,13.15
2017-12-31T06:37:52.418Z,13.19
2017-12-31T06:40:20.142Z,13.12
2017-12-31T06:42:48.026Z,13.16
2017-12-31T06:45:15.559Z,13.08
2017-12-31T06:47:43.054Z,13.04
2017-12-31T06:50:10.778Z,13.03
2017-12-31T06:52:38.321Z,13.02
2017-12-31T06:55:05.798Z,13.09
2017-12-31T06:57:33.296Z,13.00
2017-12-31T07:00:00.742Z,12.96
2017-12-31T07:02:28.223Z,13.14
2017-12-31T07:04:55.685Z,13.15
2017-12-31T07:07:23.163Z,13.03
2017-12-31T07:09:50.614Z,13.11
2017-12-31T07:12:18.082Z,13.11
2017-12-31T07:14:45.547Z,13.22
2017-12-31T07:17:13.014Z,13.22
2017-12-31T07:19:40.494Z,13.07
2017-12-31T07:22:07.962Z,12.96
2017-12-31T07:24:35.418Z,12.93
2017-12-31T07:27:02.957Z,12.99
2017-12-31T07:29:30.416Z,13.13
2017-12-31T07:31:57.900Z,13.07
2017-12-31T07:34:25.360Z,12.98
2017-12-31T07:36:52.837Z,13.21
2017-12-31T07:39:20.311Z,13.16
2017-12-31T07:41:47.785Z,13.09
2017-12-31T07:44:15.273Z,13.16
2017-12-31T07:46:42.750Z,13.10
2017-12-31T07:49:10.224Z,13.14
2017-12-31T07:51:37.682Z,13.08
2017-12-31T07:54:05.150Z,12.99
2017-12-31T07:56:32.606Z,13.13
2017-12-31T07:59:00.099Z,13.14
2017-12-31T08:01:27.546Z,13.24
2017-12-31T08:03:55.026Z,13.27
2017-12-31T08:06:22.486Z,13.25
2017-12-31T08:08:49.977Z,13.21
2017-12-31T08:11:17.434Z,13.19
2017-12-31T08:13:45.758Z,13.19
2017-12-31T08:16:13.218Z,13.26
2017-12-31T08:18:40.745Z,13.35
2017-12-31T08:21:08.176Z,13.33
2017-12-31T08:23:35.652Z,13.32
2017-12-31T08:26:03.112Z,13.38
2017-12-31T08:28:30.593Z,13.45
2017-12-31T08:30:58.051Z,13.54
2017-12-31T08:33:25.522Z,13.60
2017-12-31T08:35:52.970Z,13.62
2017-12-31T08:38:20.434Z,13.74
2017-12-31T08:40:47.887Z,13.87
2017-12-31T08:43:15.371Z,13.85
2017-12-31T08:45:42.848Z,13.87
2017-12-31T08:48:10.322Z,13.83
2017-12-31T08:50:37.784Z,13.88
2017-12-31T08:53:05.254Z,13.99
2017-12-31T08:55:32.714Z,13.98
2017-12-31T08:58:00.183Z,13.99
2017-12-31T09:00:27.641Z,14.01
2017-12-31T09:02:55.142Z,13.96
2017-12-31T09:05:22.602Z,14.00
2017-12-31T09:07:50.118Z,13.86
2017-12-31T09:10:17.595Z,13.85
2017-12-31T09:12:45.050Z,13.80
2017-12-31T09:15:12.523Z,13.76
2017-12-31T09:17:40.004Z,13.74
2017-12-31T09:20:07.478Z,13.74
2017-12-31T09:22:34.952Z,13.68
2017-12-31T09:25:02.430Z,13.64
2017-12-31T09:27:29.884Z,13.68
2017-12-31T09:29:57.349Z,13.69
2017-12-31T09:32:24.802Z,13.65
2017-12-31T09:34:52.279Z,13.66
2017-12-31T09:37:19.743Z,13.62
2017-12-31T09:39:47.234Z,13.63
2017-12-31T09:42:14.691Z,13.65
2017-12-31T09:44:42.163Z,13.62
2017-12-31T09:47:11.375Z,13.64
2017-12-31T09:49:38.850Z,13.61
2017-12-31T09:52:06.302Z,13.64
2017-12-31T09:54:33.775Z,13.71
2017-12-31T09:57:01.275Z,13.74
2017-12-31T09:59:28.755Z,13.84
2017-12-31T10:01:56.214Z,13.86
2017-12-31T10:04:23.688Z,13.87
2017-12-31T10:06:51.143Z,13.95
2017-12-31T10:09:18.614Z,13.96
2017-12-31T10:11:46.080Z,13.94
2017-12-31T10:14:13.566Z,13.96
2017-12-31T10:16:41.014Z,13.99
2017-12-31T10:19:08.478Z,14.03
2017-12-31T10:21:35.926Z,14.00
2017-12-31T10:24:03.472Z,14.03
2017-12-31T10:26:30.898Z,13.99
2017-12-31T10:28:58.386Z,14.03
2017-12-31T10:31:25.852Z,13.99
2017-12-31T10:33:53.359Z,14.04
2017-12-31T10:36:20.839Z,14.09
2017-12-31T10:38:48.299Z,14.09
2017-12-31T10:41:15.781Z,14.08
2017-12-31T10:43:43.227Z,14.07
2017-12-31T10:46:10.710Z,14.02
2017-12-31T10:48:38.155Z,14.15
2017-12-31T10:51:05.627Z,14.12
2017-12-31T10:53:33.074Z,14.19
2017-12-31T10:56:00.550Z,14.25
2017-12-31T10:58:28.006Z,14.20
2017-12-31T11:01:00.426Z,14.14
2017-12-31T11:03:27.880Z,14.18
2017-12-31T11:05:55.360Z,14.21
2017-12-31T11:08:22.814Z,14.28
2017-12-31T11:10:50.282Z,14.14
2017-12-31T11:13:17.738Z,14.12
2017-12-31T11:15:45.214Z,14.10
2017-12-31T11:18:13.198Z,14.17
2017-12-31T11:20:41.388Z,14.30
2017-12-31T11:23:08.834Z,14.40
2017-12-31T11:25:36.315Z,14.49
2017-12-31T11:28:04.618Z,14.39
2017-12-31T11:30:32.104Z,14.31
2017-12-31T11:33:01.551Z,14.15
2017-12-31T11:35:29.051Z,14.01
2017-12-31T11:37:56.511Z,13.97
2017-12-31T11:40:23.982Z,13.92
2017-12-31T11:42:51.434Z,13.94
2017-12-31T11:45:18.906Z,14.02
2017-12-31T11:47:46.359Z,13.99
2017-12-31T11:50:13.830Z,14.01
2017-12-31T11:52:41.278Z,14.04
2017-12-31T11:55:08.730Z,14.10
2017-12-31T11:57:36.202Z,14.18
2017-12-31T12:00:03.654Z,14.28
2017-12-31T12:02:31.154Z,14.25
2017-12-31T12:04:58.610Z,14.24
2017-12-31T12:07:26.090Z,14.08
2017-12-31T12:09:53.559Z,14.11
2017-12-31T12:12:21.040Z,14.21
2017-12-31T12:14:49.012Z,14.30
2017-12-31T12:17:16.943Z,14.27
2017-12-31T12:19:44.390Z,14.28
2017-12-31T12:22:11.870Z,14.37
2017-12-31T12:24:39.329Z,14.57
2017-12-31T12:27:06.800Z,14.60
2017-12-31T12:29:34.264Z,14.57
2017-12-31T12:32:01.739Z,14.69
2017-12-31T12:34:29.194Z,14.74
2017-12-31T12:36:56.671Z,14.76
2017-12-31T12:39:24.126Z,14.80
2017-12-31T12:41:51.614Z,14.81
2017-12-31T12:44:23.635Z,14.94
2017-12-31T12:46:51.119Z,14.93
2017-12-31T12:49:18.575Z,14.90
2017-12-31T12:51:46.048Z,14.91
2017-12-31T12:54:13.501Z,15.05
2017-12-31T12:56:41.818Z,15.18
2017-12-31T12:59:09.274Z,15.19
2017-12-31T13:01:36.787Z,15.12
2017-12-31T13:04:04.258Z,15.09
2017-12-31T13:06:31.757Z,15.10
2017-12-31T13:09:00.055Z,14.95
2017-12-31T13:11:27.540Z,14.81
2017-12-31T13:13:55.006Z,14.78
2017-12-31T13:16:22.482Z,14.75
2017-12-31T13:18:50.270Z,14.75
2017-12-31T13:21:17.826Z,14.89
2017-12-31T13:23:45.315Z,14.93
2017-12-31T13:26:12.786Z,14.96
2017-12-31T13:28:40.282Z,14.95
2017-12-31T13:31:07.742Z,15.00
2017-12-31T13:33:35.217Z,14.94
2017-12-31T13:36:03.146Z,14.97
2017-12-31T13:38:36.658Z,14.99
2017-12-31T13:41:04.151Z,15.05
2017-12-31T13:43:31.635Z,15.00
2017-12-31T13:45:59.102Z,15.06
2017-12-31T13:48:26.606Z,15.03
2017-12-31T13:50:54.063Z,14.95
2017-12-31T13:53:21.542Z,14.91
2017-12-31T13:55:48.990Z,14.87
2017-12-31T13:58:16.471Z,14.76
2017-12-31T14:00:43.954Z,14.70
2017-12-31T14:03:11.462Z,14.67
2017-12-31T14:05:38.921Z,14.63
2017-12-31T14:08:06.435Z,14.58
2017-12-31T14:10:33.911Z,14.56
2017-12-31T14:13:04.714Z,14.60
2017-12-31T14:15:32.171Z,14.57
2017-12-31T14:17:59.642Z,14.56
2017-12-31T14:20:27.690Z,14.54
2017-12-31T14:22:55.174Z,14.48
2017-12-31T14:25:22.623Z,14.45
2017-12-31T14:27:53.151Z,14.47
2017-12-31T14:30:20.596Z,14.47
2017-12-31T14:32:48.063Z,14.38
2017-12-31T14:35:15.517Z,14.42
2017-12-31T14:37:43.001Z,14.37
2017-12-31T14:40:10.580Z,14.40
2017-12-31T14:42:38.071Z,14.36
2017-12-31T14:45:05.535Z,14.44
2017-12-31T14:47:33.021Z,14.44
2017-12-31T14:50:00.482Z,14.48
2017-12-31T14:52:27.934Z,14.45
2017-12-31T14:54:55.411Z,14.42
2017-12-31T14:57:22.871Z,14.39
2017-12-31T14:59:53.503Z,14.45
2017-12-31T15:02:20.958Z,14.40
2017-12-31T15:04:48.475Z,14.36
2017-12-31T15:07:15.926Z,14.28
2017-12-31T15:09:43.403Z,14.27
2017-12-31T15:12:10.855Z,14.26
2017-12-31T15:14:38.322Z,14.28
2017-12-31T15:17:05.778Z,14.30
2017-12-31T15:19:33.250Z,14.27
2017-12-31T15:24:33.420Z,14.27
2017-12-31T15:27:00.872Z,14.34
2017-12-31T15:29:28.354Z,14.27
2017-12-31T15:31:55.807Z,14.30
2017-12-31T15:34:23.279Z,14.31
2017-12-31T15:36:50.732Z,14.24
2017-12-31T15:39:18.208Z,14.17
2017-12-31T15:44:18.763Z,14.07
2017-12-31T15:46:46.223Z,14.11
2017-12-31T15:49:13.700Z,14.17
2017-12-31T15:51:41.165Z,14.36
2017-12-31T15:54:08.647Z,14.21
2017-12-31T15:56:36.098Z,14.26
2017-12-31T15:59:03.586Z,14.17
2017-12-31T16:01:31.039Z,14.14
2017-12-31T16:03:58.515Z,14.02
2017-12-31T16:06:25.967Z,14.18
2017-12-31T16:08:53.467Z,14.25
2017-12-31T16:11:20.926Z,14.24
2017-12-31T16:13:48.410Z,14.28
2017-12-31T16:16:15.870Z,14.26
2017-12-31T16:18:43.322Z,14.16
2017-12-31T16:21:10.799Z,14.21
2017-12-31T16:23:38.262Z,14.08
2017-12-31T16:26:05.753Z,14.07
2017-12-31T16:28:33.218Z,14.21
2017-12-31T16:31:00.706Z,14.25
2017-12-31T16:33:28.166Z,14.31
2017-12-31T16:35:55.655Z,14.28
2017-12-31T16:38:23.110Z,14.27
2017-12-31T16:40:50.602Z,14.27
2017-12-31T16:43:18.058Z,14.17
2017-12-31T16:45:45.542Z,14.21
2017-12-31T16:48:13.006Z,14.23
2017-12-31T16:50:40.485Z,14.17
2017-12-31T16:53:07.951Z,14.24
2017-12-31T16:55:35.437Z,14.31
2017-12-31T16:58:02.916Z,14.31
2017-12-31T17:00:30.394Z,14.31
2017-12-31T17:02:57.849Z,14.29
2017-12-31T17:05:25.318Z,14.31
2017-12-31T17:07:52.786Z,14.25
2017-12-31T17:10:20.254Z,14.32
2017-12-31T17:12:47.706Z,14.28
2017-12-31T17:15:15.186Z,14.31
2017-12-31T17:17:42.647Z,14.29
2017-12-31T17:20:10.118Z,14.21
2017-12-31T17:22:37.570Z,14.18
2017-12-31T17:25:05.050Z,14.13
2017-12-31T17:27:32.516Z,14.30
2017-12-31T17:29:59.992Z,14.39
2017-12-31T17:32:27.455Z,14.33
2017-12-31T17:34:54.943Z,14.27
2017-12-31T17:37:22.403Z,14.22
2017-12-31T17:39:49.851Z,14.34
2017-12-31T17:42:17.327Z,14.23
2017-12-31T17:44:44.792Z,14.14
2017-12-31T17:47:12.278Z,14.24
2017-12-31T17:49:39.730Z,14.13
2017-12-31T17:52:07.203Z,14.14
2017-12-31T17:54:34.658Z,14.19
2017-12-31T17:57:02.143Z,14.16
2017-12-31T17:59:29.608Z,14.27
2017-12-31T18:01:57.078Z,14.25
2017-12-31T18:04:24.526Z,14.33
2017-12-31T18:06:52.003Z,14.31
2017-12-31T18:09:19.458Z,14.37
2017-12-31T18:11:46.926Z,14.17
2017-12-31T18:14:14.383Z,14.26
2017-12-31T18:16:41.863Z,14.28
2017-12-31T18:19:09.326Z,14.23
2017-12-31T18:21:36.803Z,14.23
2017-12-31T18:24:04.256Z,14.23
2017-12-31T18:26:31.727Z,14.18
2017-12-31T18:28:59.186Z,14.10
2017-12-31T18:31:26.699Z,14.24
2017-12-31T18:33:54.219Z,14.27
2017-12-31T18:36:21.675Z,14.26
2017-12-31T18:38:49.163Z,14.25
2017-12-31T18:41:16.710Z,14.19
2017-12-31T18:43:44.162Z,14.16
2017-12-31T18:46:11.635Z,14.22
2017-12-31T18:48:39.099Z,14.15
2017-12-31T18:51:06.587Z,14.04
2017-12-31T18:53:34.056Z,14.15
2017-12-31T18:56:01.559Z,14.17
2017-12-31T18:58:29.021Z,14.07
2017-12-31T19:00:56.472Z,13.97
2017-12-31T19:03:23.946Z,14.10
2017-12-31T19:05:51.423Z,14.04
2017-12-31T19:08:18.906Z,14.13
2017-12-31T19:10:46.375Z,14.08
2017-12-31T19:13:13.879Z,14.12
2017-12-31T19:15:41.340Z,14.17
2017-12-31T19:18:08.823Z,14.12
2017-12-31T19:20:36.287Z,14.07
2017-12-31T19:23:03.807Z,14.06
2017-12-31T19:25:31.273Z,14.05
2017-12-31T19:27:58.755Z,13.98
2017-12-31T19:30:26.233Z,13.81
2017-12-31T19:32:53.710Z,13.90
2017-12-31T19:35:21.202Z,13.79
2017-12-31T19:37:48.687Z,13.67
2017-12-31T19:40:16.155Z,13.64
2017-12-31T19:42:43.810Z,13.59
2017-12-31T19:45:12.257Z,13.59
2017-12-31T19:47:39.744Z,13.68
2017-12-31T19:50:07.215Z,13.75
2017-12-31T19:52:34.702Z,13.75
2017-12-31T19:55:02.179Z,13.74
2017-12-31T19:57:29.656Z,13.70
2017-12-31T19:59:57.121Z,13.75
2017-12-31T20:02:24.602Z,13.66
2017-12-31T20:04:52.063Z,13.56
2017-12-31T20:07:19.543Z,13.51
2017-12-31T20:09:46.999Z,13.41
2017-12-31T20:12:14.483Z,13.37
2017-12-31T20:14:41.939Z,13.39
2017-12-31T20:17:09.442Z,13.32
2017-12-31T20:19:36.938Z,13.32
2017-12-31T20:22:04.415Z,13.27
2017-12-31T20:24:31.898Z,13.20
2017-12-31T20:26:59.354Z,13.04
2017-12-31T20:29:26.823Z,12.72
2017-12-31T20:31:54.285Z,12.51
2017-12-31T20:34:21.767Z,12.39
2017-12-31T20:36:49.290Z,12.32
2017-12-31T20:39:16.743Z,12.23
2017-12-31T20:41:44.219Z,12.16
2017-12-31T20:44:11.723Z,12.26
2017-12-31T20:46:39.183Z,12.16
2017-12-31T20:49:06.684Z,12.07
2017-12-31T20:51:34.146Z,11.97
2017-12-31T20:54:01.614Z,11.96
2017-12-31T20:56:29.066Z,11.92
2017-12-31T20:58:56.537Z,11.86
2017-12-31T21:01:23.994Z,11.80
2017-12-31T21:03:51.463Z,11.77
2017-12-31T21:06:18.910Z,11.76
2017-12-31T21:08:46.387Z,11.73
2017-12-31T21:11:13.850Z,11.71
2017-12-31T21:13:41.322Z,11.64
2017-12-31T21:16:08.771Z,11.56
2017-12-31T21:18:36.634Z,11.51
2017-12-31T21:21:04.086Z,11.45
2017-12-31T21:23:31.557Z,11.39
2017-12-31T21:25:59.014Z,11.38
2017-12-31T21:28:26.487Z,11.23
2017-12-31T21:30:53.950Z,11.10
2017-12-31T21:33:21.418Z,11.04
2017-12-31T21:35:48.884Z,11.06
2017-12-31T21:38:16.383Z,11.02
2017-12-31T21:40:43.841Z,10.93
2017-12-31T21:43:11.294Z,10.88
2017-12-31T21:45:38.775Z,10.81
2017-12-31T21:48:06.236Z,10.80
2017-12-31T21:50:33.711Z,10.75
2017-12-31T21:53:01.154Z,10.76
2017-12-31T21:55:28.827Z,10.73
2017-12-31T21:57:56.274Z,10.81
2017-12-31T22:03:06.876Z,11.01
2017-12-31T22:08:44.478Z,11.06
2017-12-31T22:13:47.388Z,11.11
2017-12-31T22:16:14.935Z,11.14
2017-12-31T22:18:42.400Z,11.18
2017-12-31T22:21:09.878Z,11.26
2017-12-31T22:23:37.578Z,11.31
2017-12-31T22:29:07.760Z,11.27
2017-12-31T22:31:35.215Z,11.21
2017-12-31T22:34:02.708Z,11.17
2017-12-31T22:36:39.330Z,11.14
2017-12-31T22:39:16.867Z,11.06
2017-12-31T22:41:46.062Z,11.05
2017-12-31T22:44:14.852Z,11.02
2017-12-31T22:46:42.354Z,10.93
2017-12-31T22:49:09.806Z,10.90
2017-12-31T22:51:37.287Z,10.88
2017-12-31T22:54:04.764Z,10.87
2017-12-31T22:56:32.263Z,10.89
2017-12-31T22:58:59.719Z,10.84
2017-12-31T23:01:27.195Z,10.80
2017-12-31T23:03:54.651Z,10.72
2017-12-31T23:06:22.134Z,10.65
2017-12-31T23:08:49.599Z,10.58
2017-12-31T23:11:17.116Z,10.52
2017-12-31T23:13:44.566Z,10.55
2017-12-31T23:16:12.051Z,10.54
2017-12-31T23:18:39.518Z,10.53
2017-12-31T23:21:06.991Z,10.52
2017-12-31T23:23:34.467Z,10.48
2017-12-31T23:26:01.946Z,10.46
2017-12-31T23:28:29.411Z,10.44
2017-12-31T23:30:56.886Z,10.43
2017-12-31T23:33:24.347Z,10.43
2017-12-31T23:35:51.823Z,10.43
2017-12-31T23:38:19.270Z,10.51
2017-12-31T23:40:46.815Z,10.55
2017-12-31T23:43:14.270Z,10.58
2017-12-31T23:45:41.746Z,10.68
2017-12-31T23:48:09.195Z,9.40
2017-12-31T23:50:36.668Z,8.72
2017-12-31T23:53:04.138Z,8.46
2017-12-31T23:55:31.620Z,8.27
2017-12-31T23:57:59.089Z,7.91
